sensor_id;sensor_type;location;lat;lon;timestamp;P1;durP1;ratioP1;P2;durP2;ratioP2
32333;SDS011;18810;53.040;8.850;2023-08-06T00:00:08;12.43;;;9.55;;
32333;SDS011;18810;53.040;8.850;2023-08-06T00:02:34;15.23;;;9.23;;
32333;SDS011;18810;53.040;8.850;2023-08-06T00:05:00;11.68;;;9.18;;
32333;SDS011;18810;53.040;8.850;2023-08-06T00:07:26;12.00;;;8.38;;
32333;SDS011;18810;53.040;8.850;2023-08-06T00:09:52;17.48;;;9.50;;
32333;SDS011;18810;53.040;8.850;2023-08-06T00:12:17;15.13;;;8.82;;
32333;SDS011;18810;53.040;8.850;2023-08-06T00:14:43;11.35;;;8.85;;
32333;SDS011;18810;53.040;8.850;2023-08-06T00:17:09;15.07;;;9.90;;
32333;SDS011;18810;53.040;8.850;2023-08-06T00:19:34;13.77;;;9.88;;
32333;SDS011;18810;53.040;8.850;2023-08-06T00:22:00;17.25;;;10.65;;
32333;SDS011;18810;53.040;8.850;2023-08-06T00:24:27;18.42;;;11.43;;
32333;SDS011;18810;53.040;8.850;2023-08-06T00:26:55;20.67;;;12.57;;
32333;SDS011;18810;53.040;8.850;2023-08-06T00:29:21;19.50;;;11.63;;
32333;SDS011;18810;53.040;8.850;2023-08-06T00:31:47;17.65;;;11.27;;
32333;SDS011;18810;53.040;8.850;2023-08-06T00:34:12;16.17;;;10.02;;
32333;SDS011;18810;53.040;8.850;2023-08-06T00:36:38;14.18;;;9.30;;
32333;SDS011;18810;53.040;8.850;2023-08-06T00:39:04;13.30;;;8.95;;
32333;SDS011;18810;53.040;8.850;2023-08-06T00:41:30;13.27;;;8.35;;
32333;SDS011;18810;53.040;8.850;2023-08-06T00:43:55;13.15;;;8.77;;
32333;SDS011;18810;53.040;8.850;2023-08-06T00:46:21;10.15;;;7.95;;
32333;SDS011;18810;53.040;8.850;2023-08-06T00:48:47;11.70;;;7.88;;
32333;SDS011;18810;53.040;8.850;2023-08-06T00:51:13;8.98;;;7.20;;
32333;SDS011;18810;53.040;8.850;2023-08-06T00:53:39;11.07;;;7.43;;
32333;SDS011;18810;53.040;8.850;2023-08-06T00:56:05;10.38;;;7.57;;
32333;SDS011;18810;53.040;8.850;2023-08-06T00:58:32;10.45;;;7.80;;
32333;SDS011;18810;53.040;8.850;2023-08-06T01:00:58;9.80;;;7.72;;
32333;SDS011;18810;53.040;8.850;2023-08-06T01:03:24;9.50;;;7.38;;
32333;SDS011;18810;53.040;8.850;2023-08-06T01:05:50;10.18;;;7.70;;
32333;SDS011;18810;53.040;8.850;2023-08-06T01:14:06;13.95;;;7.90;;
32333;SDS011;18810;53.040;8.850;2023-08-06T01:16:38;11.00;;;8.10;;
32333;SDS011;18810;53.040;8.850;2023-08-06T01:19:07;10.57;;;8.07;;
32333;SDS011;18810;53.040;8.850;2023-08-06T01:21:43;13.85;;;8.38;;
32333;SDS011;18810;53.040;8.850;2023-08-06T01:24:09;14.15;;;8.98;;
32333;SDS011;18810;53.040;8.850;2023-08-06T01:26:42;8.93;;;7.93;;
32333;SDS011;18810;53.040;8.850;2023-08-06T01:31:48;9.40;;;8.10;;
32333;SDS011;18810;53.040;8.850;2023-08-06T01:34:26;9.50;;;8.02;;
32333;SDS011;18810;53.040;8.850;2023-08-06T01:36:56;10.75;;;8.73;;
32333;SDS011;18810;53.040;8.850;2023-08-06T01:39:22;12.52;;;9.52;;
32333;SDS011;18810;53.040;8.850;2023-08-06T01:41:48;12.48;;;8.60;;
32333;SDS011;18810;53.040;8.850;2023-08-06T01:44:14;10.90;;;8.10;;
32333;SDS011;18810;53.040;8.850;2023-08-06T01:46:41;10.55;;;8.25;;
32333;SDS011;18810;53.040;8.850;2023-08-06T01:49:06;11.88;;;8.00;;
32333;SDS011;18810;53.040;8.850;2023-08-06T01:51:32;12.55;;;9.05;;
32333;SDS011;18810;53.040;8.850;2023-08-06T01:53:58;9.18;;;8.15;;
32333;SDS011;18810;53.040;8.850;2023-08-06T01:56:24;13.18;;;9.02;;
32333;SDS011;18810;53.040;8.850;2023-08-06T01:58:50;13.57;;;9.02;;
32333;SDS011;18810;53.040;8.850;2023-08-06T02:01:15;12.95;;;8.40;;
32333;SDS011;18810;53.040;8.850;2023-08-06T02:03:41;13.23;;;8.95;;
32333;SDS011;18810;53.040;8.850;2023-08-06T02:06:07;11.38;;;8.55;;
32333;SDS011;18810;53.040;8.850;2023-08-06T02:08:32;13.13;;;8.63;;
32333;SDS011;18810;53.040;8.850;2023-08-06T02:10:58;11.18;;;8.90;;
32333;SDS011;18810;53.040;8.850;2023-08-06T02:13:24;12.15;;;8.63;;
32333;SDS011;18810;53.040;8.850;2023-08-06T02:15:50;13.32;;;9.13;;
32333;SDS011;18810;53.040;8.850;2023-08-06T02:18:15;16.27;;;9.95;;
32333;SDS011;18810;53.040;8.850;2023-08-06T02:20:42;13.73;;;8.75;;
32333;SDS011;18810;53.040;8.850;2023-08-06T02:23:08;14.13;;;9.95;;
32333;SDS011;18810;53.040;8.850;2023-08-06T02:25:34;11.23;;;8.23;;
32333;SDS011;18810;53.040;8.850;2023-08-06T02:28:00;9.80;;;7.75;;
32333;SDS011;18810;53.040;8.850;2023-08-06T02:30:26;11.57;;;8.63;;
32333;SDS011;18810;53.040;8.850;2023-08-06T02:32:52;16.08;;;9.88;;
32333;SDS011;18810;53.040;8.850;2023-08-06T02:35:17;12.57;;;9.90;;
32333;SDS011;18810;53.040;8.850;2023-08-06T02:37:43;15.05;;;9.50;;
32333;SDS011;18810;53.040;8.850;2023-08-06T02:40:09;13.45;;;10.43;;
32333;SDS011;18810;53.040;8.850;2023-08-06T02:42:35;14.52;;;8.98;;
32333;SDS011;18810;53.040;8.850;2023-08-06T02:45:01;13.88;;;9.80;;
32333;SDS011;18810;53.040;8.850;2023-08-06T02:47:27;13.80;;;9.35;;
32333;SDS011;18810;53.040;8.850;2023-08-06T02:49:53;11.75;;;9.05;;
32333;SDS011;18810;53.040;8.850;2023-08-06T02:52:18;12.13;;;9.18;;
32333;SDS011;18810;53.040;8.850;2023-08-06T02:54:44;15.32;;;9.73;;
32333;SDS011;18810;53.040;8.850;2023-08-06T02:57:10;12.15;;;9.10;;
32333;SDS011;18810;53.040;8.850;2023-08-06T02:59:35;15.10;;;10.25;;
32333;SDS011;18810;53.040;8.850;2023-08-06T03:02:01;13.32;;;9.98;;
32333;SDS011;18810;53.040;8.850;2023-08-06T03:04:27;15.80;;;10.15;;
32333;SDS011;18810;53.040;8.850;2023-08-06T03:06:52;13.73;;;10.55;;
32333;SDS011;18810;53.040;8.850;2023-08-06T03:09:18;13.48;;;10.05;;
32333;SDS011;18810;53.040;8.850;2023-08-06T03:11:44;18.95;;;10.18;;
32333;SDS011;18810;53.040;8.850;2023-08-06T03:14:10;15.95;;;10.70;;
32333;SDS011;18810;53.040;8.850;2023-08-06T03:16:35;15.07;;;10.75;;
32333;SDS011;18810;53.040;8.850;2023-08-06T03:19:01;13.50;;;10.27;;
32333;SDS011;18810;53.040;8.850;2023-08-06T03:21:27;15.63;;;11.05;;
32333;SDS011;18810;53.040;8.850;2023-08-06T03:23:52;17.70;;;12.38;;
32333;SDS011;18810;53.040;8.850;2023-08-06T03:26:18;15.93;;;11.82;;
32333;SDS011;18810;53.040;8.850;2023-08-06T03:28:44;20.65;;;12.82;;
32333;SDS011;18810;53.040;8.850;2023-08-06T03:31:10;16.90;;;10.80;;
32333;SDS011;18810;53.040;8.850;2023-08-06T03:33:35;18.33;;;12.68;;
32333;SDS011;18810;53.040;8.850;2023-08-06T03:36:01;20.98;;;14.02;;
32333;SDS011;18810;53.040;8.850;2023-08-06T03:38:27;23.67;;;14.65;;
32333;SDS011;18810;53.040;8.850;2023-08-06T03:40:53;19.48;;;13.57;;
32333;SDS011;18810;53.040;8.850;2023-08-06T03:43:19;18.13;;;12.55;;
32333;SDS011;18810;53.040;8.850;2023-08-06T03:45:44;24.13;;;15.05;;
32333;SDS011;18810;53.040;8.850;2023-08-06T03:48:10;20.13;;;14.70;;
32333;SDS011;18810;53.040;8.850;2023-08-06T03:50:36;24.00;;;14.63;;
32333;SDS011;18810;53.040;8.850;2023-08-06T03:53:03;18.23;;;12.93;;
32333;SDS011;18810;53.040;8.850;2023-08-06T03:55:28;20.52;;;14.05;;
32333;SDS011;18810;53.040;8.850;2023-08-06T03:57:54;19.70;;;14.55;;
32333;SDS011;18810;53.040;8.850;2023-08-06T04:00:20;22.05;;;15.15;;
32333;SDS011;18810;53.040;8.850;2023-08-06T04:02:45;24.10;;;15.07;;
32333;SDS011;18810;53.040;8.850;2023-08-06T04:05:11;22.30;;;15.00;;
32333;SDS011;18810;53.040;8.850;2023-08-06T04:07:37;25.95;;;15.50;;
32333;SDS011;18810;53.040;8.850;2023-08-06T04:10:04;19.25;;;13.93;;
32333;SDS011;18810;53.040;8.850;2023-08-06T04:12:30;25.58;;;16.40;;
32333;SDS011;18810;53.040;8.850;2023-08-06T04:14:58;30.55;;;17.17;;
32333;SDS011;18810;53.040;8.850;2023-08-06T04:17:24;21.27;;;14.95;;
32333;SDS011;18810;53.040;8.850;2023-08-06T04:19:50;26.90;;;18.90;;
32333;SDS011;18810;53.040;8.850;2023-08-06T04:22:16;28.08;;;17.92;;
32333;SDS011;18810;53.040;8.850;2023-08-06T04:24:43;26.52;;;17.90;;
32333;SDS011;18810;53.040;8.850;2023-08-06T04:27:09;26.75;;;17.88;;
32333;SDS011;18810;53.040;8.850;2023-08-06T04:29:35;22.60;;;16.50;;
32333;SDS011;18810;53.040;8.850;2023-08-06T04:32:01;27.10;;;17.20;;
32333;SDS011;18810;53.040;8.850;2023-08-06T04:34:28;23.65;;;14.80;;
32333;SDS011;18810;53.040;8.850;2023-08-06T04:36:54;29.30;;;18.00;;
32333;SDS011;18810;53.040;8.850;2023-08-06T04:39:20;26.45;;;17.80;;
32333;SDS011;18810;53.040;8.850;2023-08-06T04:41:45;27.40;;;17.98;;
32333;SDS011;18810;53.040;8.850;2023-08-06T04:44:11;25.50;;;16.83;;
32333;SDS011;18810;53.040;8.850;2023-08-06T04:46:37;22.63;;;15.65;;
32333;SDS011;18810;53.040;8.850;2023-08-06T04:49:02;23.50;;;16.10;;
32333;SDS011;18810;53.040;8.850;2023-08-06T04:51:28;21.83;;;15.18;;
32333;SDS011;18810;53.040;8.850;2023-08-06T04:53:54;23.15;;;15.15;;
32333;SDS011;18810;53.040;8.850;2023-08-06T04:56:19;22.40;;;15.82;;
32333;SDS011;18810;53.040;8.850;2023-08-06T04:58:45;25.98;;;17.95;;
32333;SDS011;18810;53.040;8.850;2023-08-06T05:01:11;21.90;;;15.77;;
32333;SDS011;18810;53.040;8.850;2023-08-06T05:03:36;25.52;;;17.70;;
32333;SDS011;18810;53.040;8.850;2023-08-06T05:06:02;28.58;;;19.00;;
32333;SDS011;18810;53.040;8.850;2023-08-06T05:08:28;24.00;;;17.02;;
32333;SDS011;18810;53.040;8.850;2023-08-06T05:10:53;25.95;;;17.35;;
32333;SDS011;18810;53.040;8.850;2023-08-06T05:13:19;28.45;;;18.10;;
32333;SDS011;18810;53.040;8.850;2023-08-06T05:15:45;26.02;;;17.60;;
32333;SDS011;18810;53.040;8.850;2023-08-06T05:18:11;27.80;;;17.15;;
32333;SDS011;18810;53.040;8.850;2023-08-06T05:20:40;26.55;;;15.98;;
32333;SDS011;18810;53.040;8.850;2023-08-06T05:23:07;24.48;;;16.85;;
32333;SDS011;18810;53.040;8.850;2023-08-06T05:25:36;24.02;;;14.90;;
32333;SDS011;18810;53.040;8.850;2023-08-06T05:28:05;26.83;;;16.90;;
32333;SDS011;18810;53.040;8.850;2023-08-06T05:30:31;24.10;;;16.08;;
32333;SDS011;18810;53.040;8.850;2023-08-06T05:32:57;25.45;;;17.45;;
32333;SDS011;18810;53.040;8.850;2023-08-06T05:35:23;24.17;;;16.35;;
32333;SDS011;18810;53.040;8.850;2023-08-06T05:37:52;21.75;;;15.48;;
32333;SDS011;18810;53.040;8.850;2023-08-06T05:40:18;18.98;;;13.32;;
32333;SDS011;18810;53.040;8.850;2023-08-06T05:42:44;26.00;;;17.20;;
32333;SDS011;18810;53.040;8.850;2023-08-06T05:45:10;24.02;;;17.17;;
32333;SDS011;18810;53.040;8.850;2023-08-06T05:47:35;24.90;;;16.70;;
32333;SDS011;18810;53.040;8.850;2023-08-06T05:50:01;25.05;;;17.98;;
32333;SDS011;18810;53.040;8.850;2023-08-06T05:52:27;23.45;;;17.17;;
32333;SDS011;18810;53.040;8.850;2023-08-06T05:54:52;23.73;;;16.58;;
32333;SDS011;18810;53.040;8.850;2023-08-06T05:57:20;19.52;;;14.15;;
32333;SDS011;18810;53.040;8.850;2023-08-06T05:59:45;21.20;;;14.95;;
32333;SDS011;18810;53.040;8.850;2023-08-06T06:02:11;21.52;;;15.63;;
32333;SDS011;18810;53.040;8.850;2023-08-06T06:04:37;27.45;;;17.52;;
32333;SDS011;18810;53.040;8.850;2023-08-06T06:07:03;21.63;;;14.80;;
32333;SDS011;18810;53.040;8.850;2023-08-06T06:09:28;19.13;;;14.15;;
32333;SDS011;18810;53.040;8.850;2023-08-06T06:11:54;18.02;;;13.13;;
32333;SDS011;18810;53.040;8.850;2023-08-06T06:14:20;31.77;;;14.23;;
32333;SDS011;18810;53.040;8.850;2023-08-06T06:16:45;19.05;;;14.13;;
32333;SDS011;18810;53.040;8.850;2023-08-06T06:19:14;17.83;;;13.80;;
32333;SDS011;18810;53.040;8.850;2023-08-06T06:21:40;16.70;;;12.30;;
32333;SDS011;18810;53.040;8.850;2023-08-06T06:24:06;15.65;;;12.55;;
32333;SDS011;18810;53.040;8.850;2023-08-06T06:26:33;17.52;;;12.70;;
32333;SDS011;18810;53.040;8.850;2023-08-06T06:28:58;13.68;;;11.25;;
32333;SDS011;18810;53.040;8.850;2023-08-06T06:31:24;12.77;;;10.27;;
32333;SDS011;18810;53.040;8.850;2023-08-06T06:33:50;17.95;;;12.98;;
32333;SDS011;18810;53.040;8.850;2023-08-06T06:36:18;13.18;;;11.32;;
32333;SDS011;18810;53.040;8.850;2023-08-06T06:38:44;15.65;;;12.32;;
32333;SDS011;18810;53.040;8.850;2023-08-06T06:41:09;15.38;;;12.40;;
32333;SDS011;18810;53.040;8.850;2023-08-06T06:43:35;14.63;;;12.45;;
32333;SDS011;18810;53.040;8.850;2023-08-06T06:46:02;14.90;;;11.10;;
32333;SDS011;18810;53.040;8.850;2023-08-06T06:48:29;14.63;;;12.02;;
32333;SDS011;18810;53.040;8.850;2023-08-06T06:50:56;14.52;;;11.43;;
32333;SDS011;18810;53.040;8.850;2023-08-06T06:53:22;13.88;;;10.55;;
32333;SDS011;18810;53.040;8.850;2023-08-06T06:55:52;16.67;;;11.73;;
32333;SDS011;18810;53.040;8.850;2023-08-06T06:58:28;14.73;;;10.02;;
32333;SDS011;18810;53.040;8.850;2023-08-06T07:00:53;10.73;;;8.77;;
32333;SDS011;18810;53.040;8.850;2023-08-06T07:03:19;12.85;;;10.52;;
32333;SDS011;18810;53.040;8.850;2023-08-06T07:05:45;14.45;;;10.63;;
32333;SDS011;18810;53.040;8.850;2023-08-06T07:08:11;14.25;;;10.32;;
32333;SDS011;18810;53.040;8.850;2023-08-06T07:10:37;12.80;;;10.18;;
32333;SDS011;18810;53.040;8.850;2023-08-06T07:13:03;14.02;;;10.00;;
32333;SDS011;18810;53.040;8.850;2023-08-06T07:15:29;13.00;;;10.77;;
32333;SDS011;18810;53.040;8.850;2023-08-06T07:17:54;13.20;;;11.05;;
32333;SDS011;18810;53.040;8.850;2023-08-06T07:20:20;14.32;;;11.05;;
32333;SDS011;18810;53.040;8.850;2023-08-06T07:22:46;13.02;;;10.32;;
32333;SDS011;18810;53.040;8.850;2023-08-06T07:25:11;10.52;;;9.27;;
32333;SDS011;18810;53.040;8.850;2023-08-06T07:27:38;10.93;;;9.40;;
32333;SDS011;18810;53.040;8.850;2023-08-06T07:30:04;10.02;;;8.63;;
32333;SDS011;18810;53.040;8.850;2023-08-06T07:32:30;10.55;;;8.68;;
32333;SDS011;18810;53.040;8.850;2023-08-06T07:34:56;9.30;;;8.30;;
32333;SDS011;18810;53.040;8.850;2023-08-06T07:37:25;12.90;;;9.38;;
32333;SDS011;18810;53.040;8.850;2023-08-06T07:39:54;11.55;;;9.15;;
32333;SDS011;18810;53.040;8.850;2023-08-06T07:42:20;9.90;;;8.90;;
32333;SDS011;18810;53.040;8.850;2023-08-06T07:44:51;9.23;;;8.27;;
32333;SDS011;18810;53.040;8.850;2023-08-06T07:47:18;11.40;;;9.68;;
32333;SDS011;18810;53.040;8.850;2023-08-06T07:49:44;10.43;;;9.40;;
32333;SDS011;18810;53.040;8.850;2023-08-06T07:52:09;10.85;;;8.93;;
32333;SDS011;18810;53.040;8.850;2023-08-06T07:54:36;9.43;;;7.57;;
32333;SDS011;18810;53.040;8.850;2023-08-06T07:57:01;8.60;;;7.32;;
32333;SDS011;18810;53.040;8.850;2023-08-06T07:59:27;7.10;;;6.35;;
32333;SDS011;18810;53.040;8.850;2023-08-06T08:01:53;7.95;;;6.80;;
32333;SDS011;18810;53.040;8.850;2023-08-06T08:04:19;6.55;;;5.93;;
32333;SDS011;18810;53.040;8.850;2023-08-06T08:06:46;5.80;;;5.20;;
32333;SDS011;18810;53.040;8.850;2023-08-06T08:09:12;6.80;;;6.13;;
32333;SDS011;18810;53.040;8.850;2023-08-06T08:11:38;6.70;;;6.00;;
32333;SDS011;18810;53.040;8.850;2023-08-06T08:14:05;7.07;;;5.57;;
32333;SDS011;18810;53.040;8.850;2023-08-06T08:16:31;4.85;;;4.35;;
32333;SDS011;18810;53.040;8.850;2023-08-06T08:18:56;5.78;;;5.22;;
32333;SDS011;18810;53.040;8.850;2023-08-06T08:21:22;6.00;;;5.40;;
32333;SDS011;18810;53.040;8.850;2023-08-06T08:23:49;6.03;;;5.20;;
32333;SDS011;18810;53.040;8.850;2023-08-06T08:26:15;6.13;;;5.53;;
32333;SDS011;18810;53.040;8.850;2023-08-06T08:28:44;6.10;;;5.50;;
32333;SDS011;18810;53.040;8.850;2023-08-06T08:31:10;6.03;;;5.43;;
32333;SDS011;18810;53.040;8.850;2023-08-06T08:33:36;7.70;;;5.80;;
32333;SDS011;18810;53.040;8.850;2023-08-06T08:36:05;7.68;;;5.30;;
32333;SDS011;18810;53.040;8.850;2023-08-06T08:38:31;5.63;;;5.13;;
32333;SDS011;18810;53.040;8.850;2023-08-06T08:40:56;6.53;;;5.93;;
32333;SDS011;18810;53.040;8.850;2023-08-06T08:43:22;7.07;;;5.40;;
32333;SDS011;18810;53.040;8.850;2023-08-06T08:45:52;5.57;;;4.78;;
32333;SDS011;18810;53.040;8.850;2023-08-06T08:48:23;5.32;;;4.82;;
32333;SDS011;18810;53.040;8.850;2023-08-06T08:50:50;6.68;;;5.10;;
32333;SDS011;18810;53.040;8.850;2023-08-06T08:53:17;6.22;;;4.80;;
32333;SDS011;18810;53.040;8.850;2023-08-06T08:55:43;6.10;;;5.45;;
32333;SDS011;18810;53.040;8.850;2023-08-06T08:58:11;6.50;;;5.15;;
32333;SDS011;18810;53.040;8.850;2023-08-06T09:00:37;4.85;;;4.45;;
32333;SDS011;18810;53.040;8.850;2023-08-06T09:03:06;5.00;;;4.18;;
32333;SDS011;18810;53.040;8.850;2023-08-06T09:05:33;4.50;;;4.10;;
32333;SDS011;18810;53.040;8.850;2023-08-06T09:08:01;4.75;;;3.97;;
32333;SDS011;18810;53.040;8.850;2023-08-06T09:10:28;4.18;;;3.75;;
32333;SDS011;18810;53.040;8.850;2023-08-06T09:12:55;4.78;;;3.70;;
32333;SDS011;18810;53.040;8.850;2023-08-06T09:15:25;4.15;;;3.42;;
32333;SDS011;18810;53.040;8.850;2023-08-06T09:17:54;4.37;;;3.97;;
32333;SDS011;18810;53.040;8.850;2023-08-06T09:20:21;4.35;;;3.95;;
32333;SDS011;18810;53.040;8.850;2023-08-06T09:22:46;4.63;;;3.40;;
32333;SDS011;18810;53.040;8.850;2023-08-06T09:25:22;4.10;;;3.33;;
32333;SDS011;18810;53.040;8.850;2023-08-06T09:27:53;4.72;;;3.65;;
32333;SDS011;18810;53.040;8.850;2023-08-06T09:33:17;3.83;;;3.25;;
32333;SDS011;18810;53.040;8.850;2023-08-06T09:35:45;4.03;;;3.10;;
32333;SDS011;18810;53.040;8.850;2023-08-06T09:38:11;3.60;;;3.30;;
32333;SDS011;18810;53.040;8.850;2023-08-06T09:40:38;3.03;;;2.67;;
32333;SDS011;18810;53.040;8.850;2023-08-06T09:43:05;2.95;;;2.72;;
32333;SDS011;18810;53.040;8.850;2023-08-06T09:45:35;3.00;;;2.70;;
32333;SDS011;18810;53.040;8.850;2023-08-06T09:48:03;3.45;;;3.15;;
32333;SDS011;18810;53.040;8.850;2023-08-06T09:50:30;4.30;;;3.03;;
32333;SDS011;18810;53.040;8.850;2023-08-06T09:52:57;4.00;;;3.25;;
32333;SDS011;18810;53.040;8.850;2023-08-06T09:55:24;3.38;;;3.08;;
32333;SDS011;18810;53.040;8.850;2023-08-06T09:57:53;3.17;;;2.80;;
32333;SDS011;18810;53.040;8.850;2023-08-06T10:00:20;3.72;;;2.97;;
32333;SDS011;18810;53.040;8.850;2023-08-06T10:02:46;2.70;;;2.50;;
32333;SDS011;18810;53.040;8.850;2023-08-06T10:05:13;3.10;;;2.70;;
32333;SDS011;18810;53.040;8.850;2023-08-06T10:07:41;2.75;;;2.50;;
32333;SDS011;18810;53.040;8.850;2023-08-06T10:10:08;2.90;;;2.67;;
32333;SDS011;18810;53.040;8.850;2023-08-06T10:12:36;2.85;;;2.63;;
32333;SDS011;18810;53.040;8.850;2023-08-06T10:15:06;4.22;;;2.63;;
32333;SDS011;18810;53.040;8.850;2023-08-06T10:17:37;3.00;;;2.58;;
32333;SDS011;18810;53.040;8.850;2023-08-06T10:20:04;3.35;;;2.00;;
32333;SDS011;18810;53.040;8.850;2023-08-06T10:22:32;2.50;;;1.92;;
32333;SDS011;18810;53.040;8.850;2023-08-06T10:24:59;4.75;;;2.42;;
32333;SDS011;18810;53.040;8.850;2023-08-06T10:32:57;2.30;;;2.10;;
32333;SDS011;18810;53.040;8.850;2023-08-06T10:37:59;2.00;;;1.90;;
32333;SDS011;18810;53.040;8.850;2023-08-06T10:40:35;1.88;;;1.77;;
32333;SDS011;18810;53.040;8.850;2023-08-06T10:43:02;1.92;;;1.75;;
32333;SDS011;18810;53.040;8.850;2023-08-06T10:45:29;1.92;;;1.83;;
32333;SDS011;18810;53.040;8.850;2023-08-06T10:47:55;2.40;;;2.20;;
32333;SDS011;18810;53.040;8.850;2023-08-06T10:50:24;2.15;;;1.95;;
32333;SDS011;18810;53.040;8.850;2023-08-06T10:52:51;2.20;;;2.00;;
32333;SDS011;18810;53.040;8.850;2023-08-06T10:55:24;2.25;;;2.05;;
32333;SDS011;18810;53.040;8.850;2023-08-06T10:57:51;1.90;;;1.80;;
32333;SDS011;18810;53.040;8.850;2023-08-06T11:00:16;2.30;;;2.10;;
32333;SDS011;18810;53.040;8.850;2023-08-06T11:02:42;2.33;;;1.98;;
32333;SDS011;18810;53.040;8.850;2023-08-06T11:05:09;2.00;;;1.90;;
32333;SDS011;18810;53.040;8.850;2023-08-06T11:07:36;2.88;;;1.95;;
32333;SDS011;18810;53.040;8.850;2023-08-06T11:10:09;2.47;;;2.28;;
32333;SDS011;18810;53.040;8.850;2023-08-06T11:12:38;2.50;;;2.30;;
32333;SDS011;18810;53.040;8.850;2023-08-06T11:15:04;2.78;;;2.03;;
32333;SDS011;18810;53.040;8.850;2023-08-06T11:17:31;2.60;;;1.95;;
32333;SDS011;18810;53.040;8.850;2023-08-06T11:19:59;2.90;;;2.15;;
32333;SDS011;18810;53.040;8.850;2023-08-06T11:22:26;2.25;;;2.15;;
32333;SDS011;18810;53.040;8.850;2023-08-06T11:24:52;2.13;;;1.98;;
32333;SDS011;18810;53.040;8.850;2023-08-06T11:27:18;3.45;;;2.30;;
32333;SDS011;18810;53.040;8.850;2023-08-06T11:29:44;2.50;;;2.30;;
32333;SDS011;18810;53.040;8.850;2023-08-06T11:32:10;2.50;;;2.22;;
32333;SDS011;18810;53.040;8.850;2023-08-06T11:34:36;2.53;;;2.20;;
32333;SDS011;18810;53.040;8.850;2023-08-06T11:37:03;2.67;;;1.80;;
32333;SDS011;18810;53.040;8.850;2023-08-06T11:39:36;2.33;;;2.13;;
32333;SDS011;18810;53.040;8.850;2023-08-06T11:42:03;2.50;;;2.22;;
32333;SDS011;18810;53.040;8.850;2023-08-06T11:44:30;1.95;;;1.85;;
32333;SDS011;18810;53.040;8.850;2023-08-06T11:46:58;2.17;;;1.98;;
32333;SDS011;18810;53.040;8.850;2023-08-06T11:54:44;2.10;;;2.00;;
32333;SDS011;18810;53.040;8.850;2023-08-06T11:57:10;2.33;;;2.13;;
32333;SDS011;18810;53.040;8.850;2023-08-06T11:59:37;2.65;;;2.20;;
32333;SDS011;18810;53.040;8.850;2023-08-06T12:02:04;4.10;;;2.05;;
32333;SDS011;18810;53.040;8.850;2023-08-06T12:04:54;1.98;;;1.88;;
32333;SDS011;18810;53.040;8.850;2023-08-06T12:07:36;2.10;;;2.00;;
32333;SDS011;18810;53.040;8.850;2023-08-06T12:10:03;2.60;;;2.40;;
32333;SDS011;18810;53.040;8.850;2023-08-06T12:12:30;2.42;;;2.22;;
32333;SDS011;18810;53.040;8.850;2023-08-06T12:14:56;1.95;;;1.85;;
32333;SDS011;18810;53.040;8.850;2023-08-06T12:17:22;2.45;;;2.00;;
32333;SDS011;18810;53.040;8.850;2023-08-06T12:19:48;2.05;;;1.95;;
32333;SDS011;18810;53.040;8.850;2023-08-06T12:22:14;2.47;;;2.28;;
32333;SDS011;18810;53.040;8.850;2023-08-06T12:24:43;3.13;;;2.83;;
32333;SDS011;18810;53.040;8.850;2023-08-06T12:27:10;2.53;;;2.30;;
32333;SDS011;18810;53.040;8.850;2023-08-06T12:29:37;2.40;;;2.20;;
32333;SDS011;18810;53.040;8.850;2023-08-06T12:32:07;2.30;;;2.10;;
32333;SDS011;18810;53.040;8.850;2023-08-06T12:34:33;2.00;;;1.90;;
32333;SDS011;18810;53.040;8.850;2023-08-06T12:36:59;2.30;;;2.17;;
32333;SDS011;18810;53.040;8.850;2023-08-06T12:39:25;2.30;;;2.05;;
32333;SDS011;18810;53.040;8.850;2023-08-06T12:41:53;2.00;;;1.90;;
32333;SDS011;18810;53.040;8.850;2023-08-06T12:44:20;2.10;;;2.00;;
32333;SDS011;18810;53.040;8.850;2023-08-06T12:46:46;3.45;;;2.17;;
32333;SDS011;18810;53.040;8.850;2023-08-06T12:49:12;3.30;;;2.10;;
32333;SDS011;18810;53.040;8.850;2023-08-06T12:51:37;1.95;;;1.85;;
32333;SDS011;18810;53.040;8.850;2023-08-06T12:54:03;2.67;;;2.10;;
32333;SDS011;18810;53.040;8.850;2023-08-06T12:56:29;2.42;;;2.22;;
32333;SDS011;18810;53.040;8.850;2023-08-06T12:58:55;3.35;;;2.08;;
32333;SDS011;18810;53.040;8.850;2023-08-06T13:01:20;2.35;;;2.15;;
32333;SDS011;18810;53.040;8.850;2023-08-06T13:03:46;2.30;;;2.10;;
32333;SDS011;18810;53.040;8.850;2023-08-06T13:06:12;2.03;;;1.90;;
32333;SDS011;18810;53.040;8.850;2023-08-06T13:08:37;2.53;;;2.03;;
32333;SDS011;18810;53.040;8.850;2023-08-06T13:11:04;2.60;;;2.40;;
32333;SDS011;18810;53.040;8.850;2023-08-06T13:13:30;2.92;;;1.98;;
32333;SDS011;18810;53.040;8.850;2023-08-06T13:15:55;2.20;;;2.00;;
32333;SDS011;18810;53.040;8.850;2023-08-06T13:18:21;3.20;;;2.00;;
32333;SDS011;18810;53.040;8.850;2023-08-06T13:20:47;2.20;;;1.95;;
32333;SDS011;18810;53.040;8.850;2023-08-06T13:23:14;3.53;;;2.03;;
32333;SDS011;18810;53.040;8.850;2023-08-06T13:25:41;2.40;;;2.20;;
32333;SDS011;18810;53.040;8.850;2023-08-06T13:28:07;3.20;;;2.17;;
32333;SDS011;18810;53.040;8.850;2023-08-06T13:30:33;3.58;;;2.30;;
32333;SDS011;18810;53.040;8.850;2023-08-06T13:33:00;2.47;;;2.28;;
32333;SDS011;18810;53.040;8.850;2023-08-06T13:35:26;2.20;;;2.00;;
32333;SDS011;18810;53.040;8.850;2023-08-06T13:37:52;3.70;;;2.50;;
32333;SDS011;18810;53.040;8.850;2023-08-06T13:40:19;2.30;;;2.10;;
32333;SDS011;18810;53.040;8.850;2023-08-06T13:42:45;2.50;;;2.30;;
32333;SDS011;18810;53.040;8.850;2023-08-06T13:45:11;2.63;;;2.42;;
32333;SDS011;18810;53.040;8.850;2023-08-06T13:47:36;2.45;;;2.13;;
32333;SDS011;18810;53.040;8.850;2023-08-06T13:50:02;2.55;;;2.35;;
32333;SDS011;18810;53.040;8.850;2023-08-06T13:52:28;3.03;;;2.58;;
32333;SDS011;18810;53.040;8.850;2023-08-06T13:54:54;2.55;;;2.35;;
32333;SDS011;18810;53.040;8.850;2023-08-06T13:57:20;2.35;;;2.25;;
32333;SDS011;18810;53.040;8.850;2023-08-06T13:59:45;2.58;;;2.38;;
32333;SDS011;18810;53.040;8.850;2023-08-06T14:02:11;4.38;;;2.20;;
32333;SDS011;18810;53.040;8.850;2023-08-06T14:04:37;2.47;;;2.30;;
32333;SDS011;18810;53.040;8.850;2023-08-06T14:07:03;2.85;;;2.50;;
32333;SDS011;18810;53.040;8.850;2023-08-06T14:09:29;2.50;;;2.30;;
32333;SDS011;18810;53.040;8.850;2023-08-06T14:11:55;2.55;;;2.28;;
32333;SDS011;18810;53.040;8.850;2023-08-06T14:14:21;2.30;;;2.10;;
32333;SDS011;18810;53.040;8.850;2023-08-06T14:16:51;2.15;;;2.05;;
32333;SDS011;18810;53.040;8.850;2023-08-06T14:19:17;2.80;;;2.40;;
32333;SDS011;18810;53.040;8.850;2023-08-06T14:21:43;2.67;;;2.00;;
32333;SDS011;18810;53.040;8.850;2023-08-06T14:24:09;3.75;;;2.40;;
32333;SDS011;18810;53.040;8.850;2023-08-06T14:26:34;2.63;;;2.42;;
32333;SDS011;18810;53.040;8.850;2023-08-06T14:29:00;2.40;;;2.20;;
32333;SDS011;18810;53.040;8.850;2023-08-06T14:31:26;2.30;;;2.03;;
32333;SDS011;18810;53.040;8.850;2023-08-06T14:33:52;3.20;;;2.40;;
32333;SDS011;18810;53.040;8.850;2023-08-06T14:36:18;2.92;;;2.72;;
32333;SDS011;18810;53.040;8.850;2023-08-06T14:38:44;4.65;;;2.35;;
32333;SDS011;18810;53.040;8.850;2023-08-06T14:41:10;3.10;;;2.80;;
32333;SDS011;18810;53.040;8.850;2023-08-06T14:43:36;3.92;;;2.83;;
32333;SDS011;18810;53.040;8.850;2023-08-06T14:46:01;2.65;;;2.45;;
32333;SDS011;18810;53.040;8.850;2023-08-06T14:48:28;4.07;;;2.63;;
32333;SDS011;18810;53.040;8.850;2023-08-06T14:50:54;2.90;;;2.60;;
32333;SDS011;18810;53.040;8.850;2023-08-06T14:53:20;4.80;;;2.85;;
32333;SDS011;18810;53.040;8.850;2023-08-06T14:55:45;2.60;;;2.40;;